Maersk Magellan — 9V6751 — position and weather

sailwx.info

Track history (hours):
 
Tides and Currents Weather Stations Pressure Air Temp Water Temp Dewpoint Dewpoint Depression Visibility Wind Speed Wind Dir Waves Ship Positions

Maersk Magellan

Last reported at 2014-Nov-08 21:05 UTC. Time now 2014-Nov-27 01:39 UTC.
Position N 31°08' E 032°18'.
Warning: this ship's position is 18 days out of date.

; draft 10.9 m.

Type: Ship. MMSI: 566549000.

Date/timePositionNaut miles runAvg speedWind from/ knotsBaromVisibWave heightAir tempDewpointWater temp
2014-Nov-08 21:05N 31°08' E 032°18'  
2014-Nov-05 12:25N 36°21' E 014°43'1112.1
2014-Nov-05 11:31N 36°24' E 014°30'1212.6
2014-Nov-05 10:33N 36°28' E 014°16'1312.7
2014-Nov-05 09:33N 36°31' E 014°01'1212.4
2014-Nov-05 08:33N 36°36' E 013°46'17012.0
2014-Nov-04 18:24N 37°34' E 010°26'1313.0
2014-Nov-04 17:26N 37°35' E 010°10'1213.4
2014-Nov-04 16:33N 37°35' E 009°56'1413.4
2014-Nov-04 15:32N 37°37' E 009°39'22913.5
2014-Nov-03 22:33N 37°23' E 004°51'5414.0
2014-Nov-03 18:41N 37°10' E 003°45'214.1
2014-Nov-03 18:33N 37°10' E 003°43'514.0
2014-Nov-03 18:11N 37°09' E 003°37'513.7
2014-Nov-03 17:48N 37°07' E 003°30'413.8
2014-Nov-03 17:32N 37°06' E 003°26'1413.7
2014-Nov-03 16:29N 37°02' E 003°09'2713.8
2014-Nov-03 14:33N 36°57' E 002°36'1413.6
2014-Nov-03 13:33N 36°54' E 002°19'36613.9
2014-Nov-02 11:14N 36°01' W 005°12'1014.5
2014-Nov-02 10:33N 35°58' W 005°23'10611.7
2014-Nov-02 01:31N 36°07' W 007°34'1212.4
2014-Nov-02 00:33N 36°10' W 007°48'1312.5
2014-Nov-01 23:30N 36°14' W 008°04'1412.6
2014-Nov-01 22:21N 36°17' W 008°21'1013.2
2014-Nov-01 21:33N 36°20' W 008°34'1313.2
2014-Nov-01 20:33N 36°23' W 008°50'2913.0
2014-Nov-01 18:22N 36°32' W 009°23'1113.5
2014-Nov-01 17:33N 36°40' W 009°33'1313.1
2014-Nov-01 16:33N 36°52' W 009°40'1414.0
2014-Nov-01 15:33N 37°05' W 009°45'1614.1
2014-Nov-01 14:25N 37°21' W 009°49'1514.0
2014-Nov-01 13:22N 37°35' W 009°53'1313.8
2014-Nov-01 12:27N 37°48' W 009°57'1213.7
2014-Nov-01 11:33N 37°60' W 010°00'  
2014-Oct-29 21:33N 49°55' W 003°09'  
Track history (hours):
 
Tides and Currents Weather Stations Pressure Air Temp Water Temp Dewpoint Dewpoint Depression Visibility Wind Speed Wind Dir Waves Ship Positions

Maersk Magellan

Last reported at 2014-Nov-08 21:05 UTC. Time now 2014-Nov-27 01:39 UTC.
Position N 31°08' E 032°18'.
Warning: this ship's position is 18 days out of date.

; draft 10.9 m.

Type: Ship. MMSI: 566549000.

Date/timePositionNaut miles runAvg speedWind from/ knotsBaromVisibWave heightAir tempDewpointWater temp
2014-Nov-08 21:05N 31°08' E 032°18'  
2014-Nov-05 12:25N 36°21' E 014°43'1112.1
2014-Nov-05 11:31N 36°24' E 014°30'1212.6
2014-Nov-05 10:33N 36°28' E 014°16'1312.7
2014-Nov-05 09:33N 36°31' E 014°01'1212.4
2014-Nov-05 08:33N 36°36' E 013°46'17012.0
2014-Nov-04 18:24N 37°34' E 010°26'1313.0
2014-Nov-04 17:26N 37°35' E 010°10'1213.4
2014-Nov-04 16:33N 37°35' E 009°56'1413.4
2014-Nov-04 15:32N 37°37' E 009°39'22913.5
2014-Nov-03 22:33N 37°23' E 004°51'5414.0
2014-Nov-03 18:41N 37°10' E 003°45'214.1
2014-Nov-03 18:33N 37°10' E 003°43'514.0
2014-Nov-03 18:11N 37°09' E 003°37'513.7
2014-Nov-03 17:48N 37°07' E 003°30'413.8
2014-Nov-03 17:32N 37°06' E 003°26'1413.7
2014-Nov-03 16:29N 37°02' E 003°09'2713.8
2014-Nov-03 14:33N 36°57' E 002°36'1413.6
2014-Nov-03 13:33N 36°54' E 002°19'36613.9
2014-Nov-02 11:14N 36°01' W 005°12'1014.5
2014-Nov-02 10:33N 35°58' W 005°23'10611.7
2014-Nov-02 01:31N 36°07' W 007°34'1212.4
2014-Nov-02 00:33N 36°10' W 007°48'1312.5
2014-Nov-01 23:30N 36°14' W 008°04'1412.6
2014-Nov-01 22:21N 36°17' W 008°21'1013.2
2014-Nov-01 21:33N 36°20' W 008°34'1313.2
2014-Nov-01 20:33N 36°23' W 008°50'2913.0
2014-Nov-01 18:22N 36°32' W 009°23'1113.5
2014-Nov-01 17:33N 36°40' W 009°33'1313.1
2014-Nov-01 16:33N 36°52' W 009°40'1414.0
2014-Nov-01 15:33N 37°05' W 009°45'1614.1
2014-Nov-01 14:25N 37°21' W 009°49'1514.0
2014-Nov-01 13:22N 37°35' W 009°53'1313.8
2014-Nov-01 12:27N 37°48' W 009°57'1213.7
2014-Nov-01 11:33N 37°60' W 010°00'  
2014-Oct-29 21:33N 49°55' W 003°09'  

Dump ship's entire track history